Time;durP1;ratioP1;P1;durP2;ratioP2;P2;SDS_P1;SDS_P2;PMS_P1;PMS_P2;Temp;Humidity;BMP_temperature;BMP_pressure;BME280_temperature;BME280_humidity;BME280_pressure;Samples;Min_cycle;Max_cycle;Signal;HPM_P1;HPM_P2
2023/11/24 00:02:44;;;;;;;2.70;1.80;;;;;;;;;;6215835;23;20223;-86
2023/11/24 00:05:49;;;;;;;3.25;1.60;;;;;;;;;;6213781;23;20171;-89
2023/11/24 00:08:54;;;;;;;2.95;1.90;;;;;;;;;;6211076;22;20493;-89
2023/11/24 00:12:01;;;;;;;4.50;2.23;;;;;;;;;;6211191;23;20215;-88
2023/11/24 00:15:06;;;;;;;8.63;2.33;;;;;;;;;;6210721;23;20210;-90
2023/11/24 00:18:13;;;;;;;4.93;1.70;;;;;;;;;;6208462;23;20261;-87
2023/11/24 00:21:18;;;;;;;5.40;2.30;;;;;;;;;;6209830;23;20171;-90
2023/11/24 00:24:24;;;;;;;6.35;2.47;;;;;;;;;;6210365;23;20174;-89
2023/11/24 00:27:32;;;;;;;5.20;2.90;;;;;;;;;;6209457;23;20166;-90
2023/11/24 00:30:38;;;;;;;5.43;2.47;;;;;;;;;;6210197;23;20171;-88
2023/11/24 00:33:45;;;;;;;4.47;2.40;;;;;;;;;;6209154;23;20168;-90
2023/11/24 00:36:50;;;;;;;4.03;2.00;;;;;;;;;;6209866;22;20203;-90
2023/11/24 00:39:55;;;;;;;5.78;2.33;;;;;;;;;;6210764;22;20302;-89
2023/11/24 00:43:02;;;;;;;4.93;2.10;;;;;;;;;;6209382;23;20175;-89
2023/11/24 00:46:08;;;;;;;3.90;2.40;;;;;;;;;;6209944;23;20236;-88
2023/11/24 00:49:15;;;;;;;3.58;2.10;;;;;;;;;;6212364;22;20175;-88
2023/11/24 00:52:20;;;;;;;5.67;2.57;;;;;;;;;;6213829;22;20224;-88
2023/11/24 00:55:26;;;;;;;8.27;2.47;;;;;;;;;;6210008;23;20186;-89
2023/11/24 00:58:33;;;;;;;5.00;2.33;;;;;;;;;;6212709;22;20223;-88
2023/11/24 01:01:39;;;;;;;3.93;2.17;;;;;;;;;;6212841;22;20179;-89
2023/11/24 01:04:47;;;;;;;5.53;2.77;;;;;;;;;;6211494;22;20168;-90
2023/11/24 01:07:53;;;;;;;5.78;2.88;;;;;;;;;;6211456;23;20172;-90
2023/11/24 01:10:58;;;;;;;4.10;2.60;;;;;;;;;;6211948;23;20175;-91
2023/11/24 01:14:04;;;;;;;5.30;2.70;;;;;;;;;;6210722;23;20526;-89
2023/11/24 01:17:09;;;;;;;7.78;2.75;;;;;;;;;;6211071;23;20179;-91
2023/11/24 01:20:16;;;;;;;8.55;3.22;;;;;;;;;;6209787;23;20589;-92
2023/11/24 01:23:21;;;;;;;5.07;2.70;;;;;;;;;;6210182;23;20256;-89
2023/11/24 01:26:27;;;;;;;7.10;3.05;;;;;;;;;;6209728;23;20714;-88
2023/11/24 01:29:35;;;;;;;5.55;3.03;;;;;;;;;;6207782;22;20167;-89
2023/11/24 01:32:40;;;;;;;6.35;2.92;;;;;;;;;;6210214;23;20191;-91
2023/11/24 01:35:49;;;;;;;6.70;2.80;;;;;;;;;;6212679;23;20167;-90
2023/11/24 01:38:56;;;;;;;7.15;2.85;;;;;;;;;;6212952;23;20270;-90
2023/11/24 01:42:00;;;;;;;4.53;2.65;;;;;;;;;;6210890;23;20294;-89
2023/11/24 01:45:09;;;;;;;6.10;2.92;;;;;;;;;;6211143;23;20626;-87
2023/11/24 01:48:14;;;;;;;6.03;2.70;;;;;;;;;;6211276;22;20179;-89
2023/11/24 01:51:21;;;;;;;5.70;2.78;;;;;;;;;;6211154;23;20171;-90
2023/11/24 01:54:31;;;;;;;4.50;2.58;;;;;;;;;;6210407;23;20234;-87
2023/11/24 01:57:39;;;;;;;4.57;2.50;;;;;;;;;;6211767;23;20194;-88
2023/11/24 02:00:46;;;;;;;4.50;2.83;;;;;;;;;;6207672;22;20187;-90
2023/11/24 02:03:52;;;;;;;5.40;2.50;;;;;;;;;;6209340;23;20215;-91
2023/11/24 02:07:00;;;;;;;5.55;2.60;;;;;;;;;;6208752;23;20175;-91
2023/11/24 02:10:06;;;;;;;5.85;2.33;;;;;;;;;;6208255;23;20168;-87
2023/11/24 02:13:11;;;;;;;7.63;2.95;;;;;;;;;;6210600;23;20155;-87
2023/11/24 02:16:16;;;;;;;6.20;2.70;;;;;;;;;;6210805;22;20163;-91
2023/11/24 02:19:21;;;;;;;3.90;2.40;;;;;;;;;;6211265;23;20202;-91
2023/11/24 02:22:28;;;;;;;5.63;2.90;;;;;;;;;;6210508;23;20643;-91
2023/11/24 02:25:34;;;;;;;1.30;0.80;;;;;;;;;;6212384;23;20278;-93
2023/11/24 02:28:40;;;;;;;1.85;0.88;;;;;;;;;;6211501;22;20223;-92
2023/11/24 02:31:45;;;;;;;4.67;0.70;;;;;;;;;;6211045;22;20215;-89
2023/11/24 02:34:51;;;;;;;3.70;1.37;;;;;;;;;;6209464;23;20292;-91
2023/11/24 02:37:56;;;;;;;0.40;0.40;;;;;;;;;;6212528;23;20190;-93
2023/11/24 02:41:05;;;;;;;0.50;0.50;;;;;;;;;;6210426;23;20531;-90
2023/11/24 02:44:11;;;;;;;0.93;0.80;;;;;;;;;;6211509;23;20179;-90
2023/11/24 02:47:18;;;;;;;0.40;0.40;;;;;;;;;;6210260;23;20167;-90
2023/11/24 02:50:23;;;;;;;0.40;0.40;;;;;;;;;;6208923;23;20261;-92
2023/11/24 02:53:28;;;;;;;0.87;0.77;;;;;;;;;;6209610;23;20154;-88
2023/11/24 02:56:35;;;;;;;0.37;0.37;;;;;;;;;;6210116;23;20496;-92
2023/11/24 02:59:40;;;;;;;0.30;0.30;;;;;;;;;;6209501;23;20212;-91
2023/11/24 03:02:46;;;;;;;0.30;0.30;;;;;;;;;;6214768;23;20626;-90
2023/11/24 03:05:51;;;;;;;0.77;0.50;;;;;;;;;;6213364;23;20174;-88
2023/11/24 03:08:57;;;;;;;0.30;0.30;;;;;;;;;;6215670;23;20151;-92
2023/11/24 03:12:04;;;;;;;1.55;0.50;;;;;;;;;;6210103;23;20167;-92
2023/11/24 03:15:11;;;;;;;1.70;1.07;;;;;;;;;;6209136;22;20164;-89
2023/11/24 03:18:16;;;;;;;0.67;0.60;;;;;;;;;;6209071;22;20514;-92
2023/11/24 03:21:21;;;;;;;0.40;0.40;;;;;;;;;;6209291;23;20232;-88
2023/11/24 03:24:26;;;;;;;0.63;0.53;;;;;;;;;;6208345;23;20179;-91
2023/11/24 03:27:33;;;;;;;0.60;0.60;;;;;;;;;;6208983;23;20175;-90
2023/11/24 03:30:38;;;;;;;0.30;0.30;;;;;;;;;;6209656;22;20178;-90
2023/11/24 03:33:43;;;;;;;0.30;0.30;;;;;;;;;;6208847;23;20162;-91
2023/11/24 03:36:48;;;;;;;0.30;0.30;;;;;;;;;;6208487;23;20167;-92
2023/11/24 03:39:54;;;;;;;0.67;0.40;;;;;;;;;;6207554;23;20241;-89
2023/11/24 03:43:02;;;;;;;0.77;0.40;;;;;;;;;;6210201;23;20221;-91
2023/11/24 03:46:07;;;;;;;0.40;0.40;;;;;;;;;;6210370;22;20218;-91
2023/11/24 03:49:12;;;;;;;1.03;0.57;;;;;;;;;;6209763;22;20291;-89
2023/11/24 03:52:17;;;;;;;1.13;0.60;;;;;;;;;;6210353;23;20292;-90
2023/11/24 03:55:23;;;;;;;0.30;0.30;;;;;;;;;;6208131;23;20162;-90
2023/11/24 03:58:29;;;;;;;0.40;0.40;;;;;;;;;;6209302;23;20174;-91
2023/11/24 04:01:35;;;;;;;0.45;0.45;;;;;;;;;;6207445;22;20218;-92
2023/11/24 04:04:40;;;;;;;0.40;0.40;;;;;;;;;;6208167;22;20370;-90
2023/11/24 04:07:46;;;;;;;0.30;0.30;;;;;;;;;;6209694;23;20166;-89
2023/11/24 04:10:51;;;;;;;0.55;0.55;;;;;;;;;;6208553;23;20172;-92
2023/11/24 04:13:58;;;;;;;0.50;0.50;;;;;;;;;;6211269;23;20163;-93
2023/11/24 04:17:02;;;;;;;0.87;0.60;;;;;;;;;;6210008;22;20507;-87
2023/11/24 04:20:09;;;;;;;2.95;0.80;;;;;;;;;;6209710;22;20166;-88
2023/11/24 04:23:14;;;;;;;0.30;0.30;;;;;;;;;;6209516;23;20599;-88
2023/11/24 04:26:19;;;;;;;0.40;0.40;;;;;;;;;;6210470;23;20167;-89
2023/11/24 04:29:25;;;;;;;0.30;0.30;;;;;;;;;;6209867;23;20171;-89
2023/11/24 04:32:30;;;;;;;0.40;0.40;;;;;;;;;;6210956;22;20550;-89
2023/11/24 04:35:36;;;;;;;1.55;0.95;;;;;;;;;;6211007;22;20597;-92
2023/11/24 04:38:41;;;;;;;0.85;0.50;;;;;;;;;;6212971;23;20198;-90
2023/11/24 04:41:46;;;;;;;2.53;0.90;;;;;;;;;;6208655;23;20490;-91
2023/11/24 04:44:53;;;;;;;0.50;0.50;;;;;;;;;;6209566;23;20190;-91
2023/11/24 04:47:59;;;;;;;0.43;0.43;;;;;;;;;;6209561;23;20171;-86
2023/11/24 04:51:04;;;;;;;0.30;0.30;;;;;;;;;;6209905;22;20167;-90
2023/11/24 04:54:09;;;;;;;0.40;0.40;;;;;;;;;;6210044;22;20183;-92
2023/11/24 04:57:14;;;;;;;0.60;0.60;;;;;;;;;;6211576;23;20629;-90
2023/11/24 05:00:21;;;;;;;10.50;1.50;;;;;;;;;;6207883;23;20263;-89
2023/11/24 05:03:26;;;;;;;0.67;0.67;;;;;;;;;;6208679;22;20191;-90
2023/11/24 05:06:31;;;;;;;0.30;0.30;;;;;;;;;;6210345;22;20171;-91
2023/11/24 05:09:37;;;;;;;0.30;0.30;;;;;;;;;;6211403;22;20171;-89
2023/11/24 05:12:43;;;;;;;0.35;0.35;;;;;;;;;;6211470;23;20167;-91
2023/11/24 05:15:49;;;;;;;0.43;0.43;;;;;;;;;;6211857;23;20581;-91
2023/11/24 05:18:55;;;;;;;0.30;0.30;;;;;;;;;;6208592;23;20206;-90
2023/11/24 05:22:00;;;;;;;0.37;0.37;;;;;;;;;;6211147;23;20626;-91
2023/11/24 05:25:05;;;;;;;0.30;0.30;;;;;;;;;;6210680;23;20486;-92
2023/11/24 05:28:10;;;;;;;1.45;0.60;;;;;;;;;;6210698;23;20611;-92
2023/11/24 05:31:17;;;;;;;0.57;0.40;;;;;;;;;;6212067;23;20171;-87
2023/11/24 05:34:24;;;;;;;0.85;0.77;;;;;;;;;;6210480;23;20183;-88
2023/11/24 05:37:29;;;;;;;0.30;0.30;;;;;;;;;;6212173;22;20151;-87
2023/11/24 05:40:34;;;;;;;0.30;0.30;;;;;;;;;;6229972;22;20501;-90
2023/11/24 05:43:39;;;;;;;0.30;0.30;;;;;;;;;;6211642;23;20220;-91
2023/11/24 05:46:48;;;;;;;0.52;0.52;;;;;;;;;;6211594;23;20328;-92
2023/11/24 05:49:54;;;;;;;0.60;0.60;;;;;;;;;;6210228;23;20194;-89
2023/11/24 05:52:59;;;;;;;0.50;0.43;;;;;;;;;;6211189;23;20152;-93
2023/11/24 05:56:06;;;;;;;0.52;0.52;;;;;;;;;;6210431;22;20168;-89
2023/11/24 05:59:11;;;;;;;0.30;0.30;;;;;;;;;;6212419;23;20233;-91
2023/11/24 06:02:17;;;;;;;0.50;0.50;;;;;;;;;;6211215;23;20233;-91
2023/11/24 06:05:23;;;;;;;0.60;0.60;;;;;;;;;;6212810;23;20225;-88
2023/11/24 06:08:28;;;;;;;0.30;0.30;;;;;;;;;;6211795;23;20163;-87
2023/11/24 06:11:33;;;;;;;0.30;0.30;;;;;;;;;;6212454;23;20760;-90
2023/11/24 06:14:38;;;;;;;0.30;0.30;;;;;;;;;;6212687;23;20218;-91
2023/11/24 06:17:48;;;;;;;0.97;0.50;;;;;;;;;;6213263;23;20685;-89
2023/11/24 06:20:54;;;;;;;0.30;0.30;;;;;;;;;;6214710;23;20236;-89
2023/11/24 06:23:59;;;;;;;3.40;0.60;;;;;;;;;;6216502;22;20184;-90
2023/11/24 06:27:07;;;;;;;0.30;0.30;;;;;;;;;;6214160;22;20171;-88
2023/11/24 06:30:13;;;;;;;0.30;0.30;;;;;;;;;;6212836;23;20171;-90
2023/11/24 06:33:25;;;;;;;0.33;0.33;;;;;;;;;;6213342;23;20183;-90
2023/11/24 06:36:31;;;;;;;0.77;0.67;;;;;;;;;;6211894;22;20166;-88
2023/11/24 06:39:36;;;;;;;0.30;0.30;;;;;;;;;;6212689;23;20228;-93
2023/11/24 06:42:42;;;;;;;0.30;0.30;;;;;;;;;;6212944;23;20237;-89
2023/11/24 06:45:48;;;;;;;0.40;0.40;;;;;;;;;;6215601;23;20167;-93
2023/11/24 06:48:56;;;;;;;0.30;0.30;;;;;;;;;;6213877;23;20170;-92
2023/11/24 06:52:02;;;;;;;0.30;0.30;;;;;;;;;;6197226;23;20171;-92
2023/11/24 06:55:10;;;;;;;0.27;0.27;;;;;;;;;;6214734;23;20167;-91
2023/11/24 06:58:15;;;;;;;0.47;0.43;;;;;;;;;;6210976;23;20603;-90
2023/11/24 07:01:30;;;;;;;0.30;0.30;;;;;;;;;;6212397;23;20243;-91
2023/11/24 07:04:53;;;;;;;0.40;0.40;;;;;;;;;;6213170;23;20612;-90
2023/11/24 07:07:59;;;;;;;0.50;0.50;;;;;;;;;;6211086;23;20163;-92
2023/11/24 07:11:04;;;;;;;0.30;0.30;;;;;;;;;;6210432;23;20214;-94
2023/11/24 07:14:10;;;;;;;0.30;0.30;;;;;;;;;;6212658;23;20167;-93
2023/11/24 07:17:15;;;;;;;0.30;0.30;;;;;;;;;;6213400;23;20183;-90
2023/11/24 07:20:22;;;;;;;0.30;0.30;;;;;;;;;;6210908;23;20186;-90
2023/11/24 07:23:29;;;;;;;0.30;0.30;;;;;;;;;;6213669;23;20594;-92
2023/11/24 07:26:34;;;;;;;0.30;0.30;;;;;;;;;;6212821;23;20170;-90
2023/11/24 07:29:40;;;;;;;0.40;0.40;;;;;;;;;;6212004;22;20168;-90
2023/11/24 07:32:46;;;;;;;0.40;0.40;;;;;;;;;;6212837;23;20251;-90
2023/11/24 07:35:52;;;;;;;0.30;0.30;;;;;;;;;;6212963;23;20187;-89
2023/11/24 07:38:59;;;;;;;0.30;0.30;;;;;;;;;;6214645;23;20223;-92
2023/11/24 07:42:13;;;;;;;1.13;0.80;;;;;;;;;;6210806;23;20174;-90
2023/11/24 07:45:18;;;;;;;9.93;0.67;;;;;;;;;;6211173;23;20167;-89
2023/11/24 07:48:23;;;;;;;0.30;0.30;;;;;;;;;;6210057;23;20638;-90
2023/11/24 07:51:29;;;;;;;0.30;0.30;;;;;;;;;;6210187;23;20183;-88
2023/11/24 07:54:35;;;;;;;0.50;0.50;;;;;;;;;;6209360;23;20203;-92
2023/11/24 07:57:40;;;;;;;0.30;0.30;;;;;;;;;;6210258;23;20171;-90
2023/11/24 08:00:45;;;;;;;0.30;0.30;;;;;;;;;;6210496;23;20207;-88
2023/11/24 08:03:50;;;;;;;0.23;0.23;;;;;;;;;;6211023;23;20170;-93
2023/11/24 08:06:56;;;;;;;0.40;0.40;;;;;;;;;;6209339;23;20171;-90
2023/11/24 08:10:04;;;;;;;0.30;0.30;;;;;;;;;;6208244;23;20261;-92
2023/11/24 08:13:09;;;;;;;0.20;0.20;;;;;;;;;;6209449;23;20171;-91
2023/11/24 08:16:16;;;;;;;0.30;0.30;;;;;;;;;;6209544;23;20175;-92
2023/11/24 08:19:25;;;;;;;0.87;0.60;;;;;;;;;;6210727;23;20285;-92
2023/11/24 08:22:31;;;;;;;0.30;0.30;;;;;;;;;;6213115;23;20178;-91
2023/11/24 08:25:38;;;;;;;0.47;0.47;;;;;;;;;;6211081;23;20175;-90
2023/11/24 08:28:44;;;;;;;0.30;0.30;;;;;;;;;;6211309;23;20311;-91
2023/11/24 08:31:50;;;;;;;0.30;0.30;;;;;;;;;;6211858;23;20158;-91
2023/11/24 08:34:55;;;;;;;0.63;0.63;;;;;;;;;;6212153;23;20182;-91
2023/11/24 08:38:03;;;;;;;0.30;0.30;;;;;;;;;;6212194;23;20543;-90
2023/11/24 08:41:14;;;;;;;0.30;0.30;;;;;;;;;;6210326;23;20203;-90
2023/11/24 08:44:24;;;;;;;0.60;0.60;;;;;;;;;;6209894;23;20159;-91
2023/11/24 08:47:29;;;;;;;0.30;0.30;;;;;;;;;;6208362;23;20175;-92
2023/11/24 08:50:34;;;;;;;0.30;0.30;;;;;;;;;;6209333;23;20503;-91
2023/11/24 08:53:42;;;;;;;0.40;0.40;;;;;;;;;;6209475;23;20614;-91
2023/11/24 08:56:48;;;;;;;0.20;0.20;;;;;;;;;;6209110;23;20194;-86
2023/11/24 08:59:54;;;;;;;0.50;0.50;;;;;;;;;;6210091;23;20195;-91
2023/11/24 09:03:02;;;;;;;0.30;0.30;;;;;;;;;;6214910;23;20299;-91
2023/11/24 09:06:07;;;;;;;0.30;0.30;;;;;;;;;;6213831;23;20174;-90
2023/11/24 09:09:12;;;;;;;0.60;0.60;;;;;;;;;;6212976;23;20282;-91
2023/11/24 09:12:20;;;;;;;2.17;1.63;;;;;;;;;;6212729;23;20664;-88
2023/11/24 09:15:25;;;;;;;0.52;0.52;;;;;;;;;;6212483;23;20166;-91
2023/11/24 09:18:31;;;;;;;2.83;0.67;;;;;;;;;;6211698;22;20171;-88
2023/11/24 09:21:37;;;;;;;0.67;0.67;;;;;;;;;;6213399;23;20193;-88
2023/11/24 09:24:43;;;;;;;0.20;0.20;;;;;;;;;;6211182;23;20240;-88
2023/11/24 09:27:49;;;;;;;0.43;0.43;;;;;;;;;;6209883;23;20175;-90
2023/11/24 09:30:55;;;;;;;0.30;0.30;;;;;;;;;;6209717;23;20182;-91
2023/11/24 09:34:01;;;;;;;0.30;0.30;;;;;;;;;;6213195;23;20162;-89
2023/11/24 09:37:21;;;;;;;0.30;0.30;;;;;;;;;;6213621;23;20494;-91
2023/11/24 09:40:26;;;;;;;0.30;0.30;;;;;;;;;;6211802;23;20226;-89
2023/11/24 09:43:33;;;;;;;0.30;0.30;;;;;;;;;;6209071;23;20175;-91
2023/11/24 09:46:40;;;;;;;0.73;0.73;;;;;;;;;;6207941;23;20174;-91
2023/11/24 09:49:46;;;;;;;0.40;0.40;;;;;;;;;;6209091;22;20171;-90
2023/11/24 09:52:52;;;;;;;1.20;1.10;;;;;;;;;;6209587;23;20194;-90
2023/11/24 09:55:57;;;;;;;0.30;0.30;;;;;;;;;;6211057;23;20170;-91
2023/11/24 09:59:08;;;;;;;0.30;0.30;;;;;;;;;;6211758;23;20215;-91
2023/11/24 10:02:20;;;;;;;0.30;0.30;;;;;;;;;;6216372;23;20190;-89
2023/11/24 10:05:26;;;;;;;0.30;0.30;;;;;;;;;;6217318;23;20241;-88
2023/11/24 10:08:32;;;;;;;0.50;0.50;;;;;;;;;;6218748;23;20195;-90
2023/11/24 10:11:39;;;;;;;0.50;0.50;;;;;;;;;;6217515;23;20176;-87
2023/11/24 10:14:48;;;;;;;1.05;0.82;;;;;;;;;;6217019;23;20210;-87
2023/11/24 10:17:54;;;;;;;0.30;0.30;;;;;;;;;;6219182;22;20176;-91
2023/11/24 10:21:04;;;;;;;0.70;0.65;;;;;;;;;;6213259;23;20195;-89
2023/11/24 10:24:10;;;;;;;0.40;0.40;;;;;;;;;;6213899;23;20175;-95
2023/11/24 10:27:21;;;;;;;0.60;0.60;;;;;;;;;;6216153;23;20190;-89
2023/11/24 10:30:28;;;;;;;0.30;0.30;;;;;;;;;;6217355;23;20167;-90
2023/11/24 10:33:34;;;;;;;0.33;0.33;;;;;;;;;;6212485;23;20614;-91
2023/11/24 10:36:40;;;;;;;0.50;0.50;;;;;;;;;;6212403;23;20611;-89
2023/11/24 10:39:46;;;;;;;0.30;0.30;;;;;;;;;;6212180;23;20206;-93
2023/11/24 10:42:55;;;;;;;2.40;0.50;;;;;;;;;;6210440;23;20183;-90
2023/11/24 10:46:02;;;;;;;0.38;0.38;;;;;;;;;;6216251;23;20214;-91
2023/11/24 10:52:36;;;;;;;0.30;0.30;;;;;;;;;;6218837;23;20202;-91
2023/11/24 10:55:42;;;;;;;5.17;0.97;;;;;;;;;;6210507;23;20175;-88
2023/11/24 10:58:48;;;;;;;5.03;1.10;;;;;;;;;;6213663;23;20631;-90
2023/11/24 11:01:57;;;;;;;8.95;1.48;;;;;;;;;;6211180;23;20191;-92
2023/11/24 11:05:10;;;;;;;8.05;1.30;;;;;;;;;;6214607;23;20219;-91
2023/11/24 11:08:19;;;;;;;6.37;1.07;;;;;;;;;;6212299;23;20171;-89
2023/11/24 11:11:34;;;;;;;7.43;1.10;;;;;;;;;;6214207;22;20163;-90
2023/11/24 11:14:40;;;;;;;4.07;1.02;;;;;;;;;;6216097;23;20222;-90
2023/11/24 11:18:07;;;;;;;2.58;1.20;;;;;;;;;;6213255;23;20187;-90
2023/11/24 11:21:14;;;;;;;2.20;1.10;;;;;;;;;;6214231;23;20237;-92
2023/11/24 11:24:25;;;;;;;8.90;1.33;;;;;;;;;;6212823;22;20162;-90
2023/11/24 11:27:35;;;;;;;4.97;1.30;;;;;;;;;;6213527;23;20507;-90
2023/11/24 11:30:40;;;;;;;3.97;1.40;;;;;;;;;;6214645;23;20215;-90
2023/11/24 11:33:48;;;;;;;3.05;1.33;;;;;;;;;;6214574;23;20175;-89
2023/11/24 11:37:11;;;;;;;7.68;1.40;;;;;;;;;;6216106;23;20218;-91
2023/11/24 11:40:19;;;;;;;5.73;1.27;;;;;;;;;;6214770;23;20182;-90
2023/11/24 11:43:27;;;;;;;7.77;1.90;;;;;;;;;;6213701;23;20214;-90
2023/11/24 11:47:03;;;;;;;4.90;1.80;;;;;;;;;;6211938;23;20212;-90
2023/11/24 11:50:17;;;;;;;5.50;1.50;;;;;;;;;;6209871;23;20170;-90
2023/11/24 11:53:25;;;;;;;3.27;1.50;;;;;;;;;;6210402;23;20236;-92
2023/11/24 11:56:34;;;;;;;3.75;1.40;;;;;;;;;;6211190;23;20191;-93
2023/11/24 11:59:40;;;;;;;7.75;2.42;;;;;;;;;;6210227;23;20278;-91
2023/11/24 12:02:45;;;;;;;8.57;2.50;;;;;;;;;;6211862;22;20235;-90
2023/11/24 12:05:57;;;;;;;9.77;2.50;;;;;;;;;;6212535;23;20175;-90
2023/11/24 12:09:08;;;;;;;11.55;2.10;;;;;;;;;;6213399;23;20175;-91
2023/11/24 12:12:13;;;;;;;8.43;1.70;;;;;;;;;;6210282;23;20234;-89
2023/11/24 12:15:19;;;;;;;10.05;1.88;;;;;;;;;;6211510;22;20162;-92
2023/11/24 12:18:25;;;;;;;6.65;1.70;;;;;;;;;;6213362;22;20171;-91
2023/11/24 12:21:38;;;;;;;6.63;1.45;;;;;;;;;;6215532;23;20191;-91
2023/11/24 12:24:43;;;;;;;9.43;2.00;;;;;;;;;;6212693;23;20167;-91
2023/11/24 12:27:48;;;;;;;6.67;1.60;;;;;;;;;;6209944;23;20167;-87
2023/11/24 12:30:55;;;;;;;7.10;1.67;;;;;;;;;;6211553;22;20175;-89
2023/11/24 12:34:02;;;;;;;9.83;1.80;;;;;;;;;;6214876;23;20214;-91
2023/11/24 12:37:09;;;;;;;10.00;2.10;;;;;;;;;;6212555;23;20163;-89
2023/11/24 12:40:21;;;;;;;7.17;1.50;;;;;;;;;;6213473;23;20187;-90
2023/11/24 12:43:28;;;;;;;7.82;1.50;;;;;;;;;;6211038;23;20175;-90
2023/11/24 12:46:34;;;;;;;4.95;1.30;;;;;;;;;;6214119;23;20215;-91
2023/11/24 12:49:59;;;;;;;10.83;2.07;;;;;;;;;;6215324;23;20211;-91
2023/11/24 12:53:06;;;;;;;6.40;1.85;;;;;;;;;;6212410;23;20191;-90
2023/11/24 12:56:12;;;;;;;2.23;0.70;;;;;;;;;;6213425;23;20210;-90
2023/11/24 12:59:18;;;;;;;1.00;0.50;;;;;;;;;;6212726;23;20187;-88
2023/11/24 13:02:24;;;;;;;3.87;0.80;;;;;;;;;;6213113;23;20191;-93
2023/11/24 13:05:29;;;;;;;2.43;0.50;;;;;;;;;;6212008;23;20175;-93
2023/11/24 13:08:37;;;;;;;16.47;5.57;;;;;;;;;;6211918;23;20175;-87
2023/11/24 13:11:43;;;;;;;1.50;0.60;;;;;;;;;;6212448;23;20171;-90
2023/11/24 13:14:48;;;;;;;1.30;0.60;;;;;;;;;;6210140;23;20203;-93
2023/11/24 13:17:53;;;;;;;1.13;0.60;;;;;;;;;;6208919;23;20253;-91
2023/11/24 13:20:58;;;;;;;1.10;0.60;;;;;;;;;;6211157;23;20191;-90
2023/11/24 13:24:06;;;;;;;5.57;2.07;;;;;;;;;;6211610;23;20172;-92
2023/11/24 13:27:13;;;;;;;1.20;0.80;;;;;;;;;;6212193;23;20164;-92
2023/11/24 13:30:21;;;;;;;2.80;0.77;;;;;;;;;;6212824;23;20170;-90
2023/11/24 13:33:30;;;;;;;1.47;0.80;;;;;;;;;;6213533;23;20179;-88
2023/11/24 13:36:36;;;;;;;5.73;1.20;;;;;;;;;;6215015;23;20179;-89
2023/11/24 13:39:45;;;;;;;2.43;0.90;;;;;;;;;;6215843;22;20167;-91
2023/11/24 13:42:50;;;;;;;1.00;0.80;;;;;;;;;;6214675;22;20179;-89
2023/11/24 13:45:56;;;;;;;3.10;1.27;;;;;;;;;;6213869;23;20186;-92
2023/11/24 13:49:02;;;;;;;3.33;1.40;;;;;;;;;;6214950;23;20163;-88
2023/11/24 13:52:10;;;;;;;4.00;1.00;;;;;;;;;;6211290;23;20693;-88
2023/11/24 13:55:18;;;;;;;5.40;1.20;;;;;;;;;;6215320;22;20195;-90
2023/11/24 13:58:23;;;;;;;2.43;1.03;;;;;;;;;;6212893;23;20194;-91
2023/11/24 14:01:28;;;;;;;2.93;1.10;;;;;;;;;;6213357;23;20209;-92
2023/11/24 14:04:35;;;;;;;4.23;1.40;;;;;;;;;;6215300;22;20175;-90
2023/11/24 14:07:48;;;;;;;1.77;1.07;;;;;;;;;;6215060;23;20206;-90
2023/11/24 14:11:00;;;;;;;2.97;1.13;;;;;;;;;;6212636;23;20622;-91
2023/11/24 14:14:06;;;;;;;1.57;0.93;;;;;;;;;;6210986;23;20175;-91
2023/11/24 14:17:11;;;;;;;3.40;1.70;;;;;;;;;;6211217;23;20610;-89
2023/11/24 14:20:17;;;;;;;3.30;1.20;;;;;;;;;;6210795;23;20244;-90
2023/11/24 14:23:23;;;;;;;6.97;2.90;;;;;;;;;;6210240;23;20678;-91
2023/11/24 14:26:34;;;;;;;9.37;2.20;;;;;;;;;;6212715;23;20516;-90
2023/11/24 14:29:40;;;;;;;12.43;2.73;;;;;;;;;;6211396;23;20164;-91
2023/11/24 14:32:45;;;;;;;14.17;3.83;;;;;;;;;;6214119;23;20166;-89
2023/11/24 14:35:50;;;;;;;5.53;2.33;;;;;;;;;;6212757;23;20166;-88
2023/11/24 14:38:56;;;;;;;3.40;1.17;;;;;;;;;;6211937;22;20168;-89
2023/11/24 14:42:05;;;;;;;3.93;1.80;;;;;;;;;;6213677;23;20198;-88
2023/11/24 14:45:15;;;;;;;6.47;1.80;;;;;;;;;;6234328;23;20171;-89
2023/11/24 14:48:21;;;;;;;4.57;2.20;;;;;;;;;;6216649;23;20167;-93
2023/11/24 14:51:29;;;;;;;5.60;1.97;;;;;;;;;;6215409;23;20171;-89
2023/11/24 14:54:34;;;;;;;5.30;1.80;;;;;;;;;;6216612;22;20215;-90
2023/11/24 14:57:41;;;;;;;4.20;1.90;;;;;;;;;;6215567;23;20166;-89
2023/11/24 15:00:47;;;;;;;3.77;1.70;;;;;;;;;;6216266;23;20187;-92
2023/11/24 15:03:53;;;;;;;4.17;1.50;;;;;;;;;;6214877;22;20171;-89
2023/11/24 15:07:00;;;;;;;2.27;1.27;;;;;;;;;;6215687;22;20219;-91
2023/11/24 15:10:06;;;;;;;2.93;1.20;;;;;;;;;;6211935;23;20178;-92
2023/11/24 15:13:20;;;;;;;4.33;1.73;;;;;;;;;;6214940;23;20214;-91
2023/11/24 15:16:28;;;;;;;7.13;1.47;;;;;;;;;;6210779;23;20175;-88
2023/11/24 15:19:38;;;;;;;5.93;2.20;;;;;;;;;;6212567;22;20162;-92
2023/11/24 15:22:44;;;;;;;4.30;1.90;;;;;;;;;;6212969;23;20203;-88
2023/11/24 15:26:00;;;;;;;4.47;1.70;;;;;;;;;;6214141;23;20167;-90
2023/11/24 15:29:09;;;;;;;5.27;1.53;;;;;;;;;;6211568;23;20223;-88
2023/11/24 15:32:19;;;;;;;0.40;0.40;;;;;;;;;;6208885;23;20271;-90
2023/11/24 15:35:25;;;;;;;0.73;0.63;;;;;;;;;;6213845;23;20179;-90
2023/11/24 15:38:30;;;;;;;0.40;0.40;;;;;;;;;;6212454;22;20171;-88
2023/11/24 15:41:50;;;;;;;0.50;0.50;;;;;;;;;;6212974;23;20274;-90
2023/11/24 15:45:14;;;;;;;11.97;0.87;;;;;;;;;;6214445;23;20163;-91
2023/11/24 15:48:22;;;;;;;1.70;0.77;;;;;;;;;;6212117;22;20157;-90
2023/11/24 15:54:51;;;;;;;0.40;0.40;;;;;;;;;;6218786;23;20167;-92
2023/11/24 15:58:03;;;;;;;0.47;0.47;;;;;;;;;;6219622;22;20172;-91
2023/11/24 16:01:08;;;;;;;2.20;1.07;;;;;;;;;;6216189;23;20270;-89
2023/11/24 16:08:07;;;;;;;0.30;0.30;;;;;;;;;;6217606;23;20163;-90
2023/11/24 16:11:19;;;;;;;0.30;0.30;;;;;;;;;;6216527;22;20176;-91
2023/11/24 16:14:26;;;;;;;0.40;0.40;;;;;;;;;;6214961;23;20171;-89
2023/11/24 16:17:35;;;;;;;0.30;0.30;;;;;;;;;;6215138;23;20175;-88
2023/11/24 16:20:41;;;;;;;0.77;0.70;;;;;;;;;;6215049;22;20151;-89
2023/11/24 16:23:49;;;;;;;0.30;0.30;;;;;;;;;;6213614;22;20186;-91
2023/11/24 16:26:54;;;;;;;0.30;0.30;;;;;;;;;;6213455;23;20175;-90
2023/11/24 16:30:09;;;;;;;0.30;0.30;;;;;;;;;;6214418;23;20238;-89
2023/11/24 16:33:14;;;;;;;0.30;0.30;;;;;;;;;;6212610;23;20240;-92
2023/11/24 16:36:19;;;;;;;0.30;0.30;;;;;;;;;;6213500;23;20559;-92
2023/11/24 16:39:30;;;;;;;0.30;0.30;;;;;;;;;;6209218;23;20498;-89
2023/11/24 16:42:36;;;;;;;0.30;0.30;;;;;;;;;;6210982;23;20316;-89
2023/11/24 16:45:41;;;;;;;0.30;0.30;;;;;;;;;;6209321;23;20175;-91
2023/11/24 16:48:47;;;;;;;0.30;0.30;;;;;;;;;;6210024;23;20251;-93
2023/11/24 16:51:52;;;;;;;0.37;0.37;;;;;;;;;;6211318;23;20235;-90
2023/11/24 16:54:59;;;;;;;0.50;0.50;;;;;;;;;;6211545;23;20170;-90
2023/11/24 16:58:06;;;;;;;0.40;0.40;;;;;;;;;;6211602;23;20167;-88
2023/11/24 17:01:11;;;;;;;0.47;0.47;;;;;;;;;;6210684;22;20186;-93
2023/11/24 17:04:17;;;;;;;4.00;0.80;;;;;;;;;;6211752;23;20163;-89
2023/11/24 17:07:23;;;;;;;0.30;0.30;;;;;;;;;;6214068;23;20171;-91
2023/11/24 17:10:34;;;;;;;0.30;0.30;;;;;;;;;;6215558;23;20235;-90
2023/11/24 17:13:41;;;;;;;0.40;0.40;;;;;;;;;;6216943;23;20166;-90
2023/11/24 17:16:46;;;;;;;0.30;0.30;;;;;;;;;;6213254;23;20164;-89
2023/11/24 17:19:51;;;;;;;0.40;0.40;;;;;;;;;;6211938;23;20171;-87
2023/11/24 17:22:57;;;;;;;0.30;0.30;;;;;;;;;;6212358;23;20313;-90
2023/11/24 17:26:06;;;;;;;0.30;0.30;;;;;;;;;;6212442;23;20250;-93
2023/11/24 17:29:12;;;;;;;1.17;0.93;;;;;;;;;;6213377;23;20170;-91
2023/11/24 17:32:19;;;;;;;0.30;0.30;;;;;;;;;;6213069;22;20211;-88
2023/11/24 17:35:25;;;;;;;0.63;0.50;;;;;;;;;;6211506;23;20171;-89
2023/11/24 17:38:30;;;;;;;0.40;0.40;;;;;;;;;;6211168;23;20219;-89
2023/11/24 17:41:37;;;;;;;0.70;0.70;;;;;;;;;;6209733;23;20191;-91
2023/11/24 17:44:42;;;;;;;0.50;0.50;;;;;;;;;;6211451;23;20175;-88
2023/11/24 17:47:48;;;;;;;0.30;0.30;;;;;;;;;;6215199;23;20168;-90
2023/11/24 17:50:53;;;;;;;0.30;0.30;;;;;;;;;;6212083;23;20194;-89
2023/11/24 17:54:00;;;;;;;0.30;0.30;;;;;;;;;;6209485;23;20167;-91
2023/11/24 17:57:09;;;;;;;0.67;0.67;;;;;;;;;;6211576;23;20171;-90
2023/11/24 18:00:20;;;;;;;0.30;0.30;;;;;;;;;;6211841;23;20171;-90
2023/11/24 18:03:25;;;;;;;0.40;0.40;;;;;;;;;;6211264;23;20190;-91
2023/11/24 18:06:31;;;;;;;0.40;0.40;;;;;;;;;;6213149;23;20271;-89
2023/11/24 18:09:36;;;;;;;0.60;0.60;;;;;;;;;;6210496;23;20172;-90
2023/11/24 18:12:43;;;;;;;0.50;0.50;;;;;;;;;;6210261;23;20163;-90
2023/11/24 18:15:49;;;;;;;0.30;0.30;;;;;;;;;;6210343;23;20179;-92
2023/11/24 18:18:54;;;;;;;0.67;0.67;;;;;;;;;;6209161;23;20503;-92
2023/11/24 18:22:00;;;;;;;0.40;0.40;;;;;;;;;;6211820;23;20239;-91
2023/11/24 18:25:07;;;;;;;0.27;0.27;;;;;;;;;;6212820;23;20175;-91
2023/11/24 18:28:14;;;;;;;0.30;0.30;;;;;;;;;;6210699;23;20610;-91
2023/11/24 18:31:20;;;;;;;0.30;0.30;;;;;;;;;;6210504;23;20166;-91
2023/11/24 18:34:27;;;;;;;0.23;0.23;;;;;;;;;;6214078;23;20219;-91
2023/11/24 18:37:33;;;;;;;0.40;0.37;;;;;;;;;;6212990;23;20218;-93
2023/11/24 18:40:38;;;;;;;0.40;0.40;;;;;;;;;;6213568;23;20465;-91
2023/11/24 18:43:46;;;;;;;0.87;0.50;;;;;;;;;;6212236;22;20284;-93
2023/11/24 18:46:51;;;;;;;2.00;0.63;;;;;;;;;;6212809;22;20179;-90
2023/11/24 18:49:56;;;;;;;0.40;0.40;;;;;;;;;;6230521;23;20295;-92
2023/11/24 18:53:02;;;;;;;0.40;0.40;;;;;;;;;;6211619;23;20199;-89